sensor_id;sensor_type;location;lat;lon;timestamp;pressure;altitude;pressure_sealevel;temperature;humidity
50710;BME280;37033;49.994;21.992;2023-03-23T00:00:40;98932.83;;;7.03;71.55
50710;BME280;37033;49.994;21.992;2023-03-23T00:03:17;98932.03;;;6.99;71.57
50710;BME280;37033;49.994;21.992;2023-03-23T00:05:48;98928.92;;;6.96;71.86
50710;BME280;37033;49.994;21.992;2023-03-23T00:08:21;98928.00;;;6.94;71.84
50710;BME280;37033;49.994;21.992;2023-03-23T00:10:52;98927.19;;;6.92;71.82
50710;BME280;37033;49.994;21.992;2023-03-23T00:13:26;98930.77;;;6.90;72.07
50710;BME280;37033;49.994;21.992;2023-03-23T00:15:57;98925.40;;;6.89;72.02
50710;BME280;37033;49.994;21.992;2023-03-23T00:18:28;98924.83;;;6.88;72.15
50710;BME280;37033;49.994;21.992;2023-03-23T00:20:58;98925.02;;;6.87;72.15
50710;BME280;37033;49.994;21.992;2023-03-23T00:23:29;98930.38;;;6.84;72.07
50710;BME280;37033;49.994;21.992;2023-03-23T00:26:00;98927.98;;;6.79;71.96
50710;BME280;37033;49.994;21.992;2023-03-23T00:28:31;98928.70;;;6.74;72.15
50710;BME280;37033;49.994;21.992;2023-03-23T00:31:04;98926.04;;;6.69;72.02
50710;BME280;37033;49.994;21.992;2023-03-23T00:33:37;98925.28;;;6.66;72.22
50710;BME280;37033;49.994;21.992;2023-03-23T00:36:11;98929.70;;;6.62;72.21
50710;BME280;37033;49.994;21.992;2023-03-23T00:38:42;98923.30;;;6.59;72.34
50710;BME280;37033;49.994;21.992;2023-03-23T00:41:13;98928.29;;;6.55;72.35
50710;BME280;37033;49.994;21.992;2023-03-23T00:43:44;98921.04;;;6.50;72.41
50710;BME280;37033;49.994;21.992;2023-03-23T00:46:15;98918.00;;;6.43;72.42
50710;BME280;37033;49.994;21.992;2023-03-23T00:48:46;98915.22;;;6.36;72.51
50710;BME280;37033;49.994;21.992;2023-03-23T00:51:18;98910.74;;;6.29;72.54
50710;BME280;37033;49.994;21.992;2023-03-23T00:53:49;98906.73;;;6.23;72.63
50710;BME280;37033;49.994;21.992;2023-03-23T00:56:20;98901.78;;;6.20;73.08
50710;BME280;37033;49.994;21.992;2023-03-23T00:58:53;98905.48;;;6.17;72.95
50710;BME280;37033;49.994;21.992;2023-03-23T01:01:23;98904.48;;;6.12;73.01
50710;BME280;37033;49.994;21.992;2023-03-23T01:03:54;98905.14;;;6.06;72.98
50710;BME280;37033;49.994;21.992;2023-03-23T01:06:30;98898.46;;;6.01;73.25
50710;BME280;37033;49.994;21.992;2023-03-23T01:09:02;98896.92;;;5.97;73.20
50710;BME280;37033;49.994;21.992;2023-03-23T01:11:33;98895.94;;;5.93;73.40
50710;BME280;37033;49.994;21.992;2023-03-23T01:14:06;98893.18;;;5.91;73.39
50710;BME280;37033;49.994;21.992;2023-03-23T01:16:36;98893.71;;;5.87;73.51
50710;BME280;37033;49.994;21.992;2023-03-23T01:19:08;98892.52;;;5.84;73.57
50710;BME280;37033;49.994;21.992;2023-03-23T01:21:40;98894.40;;;5.82;73.79
50710;BME280;37033;49.994;21.992;2023-03-23T01:24:10;98893.67;;;5.79;73.96
50710;BME280;37033;49.994;21.992;2023-03-23T01:26:41;98888.20;;;5.76;73.87
50710;BME280;37033;49.994;21.992;2023-03-23T01:29:12;98886.42;;;5.73;74.06
50710;BME280;37033;49.994;21.992;2023-03-23T01:31:43;98883.55;;;5.69;74.05
50710;BME280;37033;49.994;21.992;2023-03-23T01:34:14;98885.58;;;5.66;74.40
50710;BME280;37033;49.994;21.992;2023-03-23T01:36:44;98881.61;;;5.64;74.42
50710;BME280;37033;49.994;21.992;2023-03-23T01:39:15;98880.40;;;5.65;74.57
50710;BME280;37033;49.994;21.992;2023-03-23T01:41:46;98878.83;;;5.65;74.66
50710;BME280;37033;49.994;21.992;2023-03-23T01:47:15;98883.70;;;5.68;74.91
50710;BME280;37033;49.994;21.992;2023-03-23T01:49:49;98884.77;;;5.68;75.04
50710;BME280;37033;49.994;21.992;2023-03-23T01:52:24;98884.85;;;5.70;75.23
50710;BME280;37033;49.994;21.992;2023-03-23T01:54:58;98888.20;;;5.71;75.29
50710;BME280;37033;49.994;21.992;2023-03-23T01:57:29;98883.62;;;5.71;75.28
50710;BME280;37033;49.994;21.992;2023-03-23T02:00:04;98884.02;;;5.72;75.25
50710;BME280;37033;49.994;21.992;2023-03-23T02:02:45;98884.64;;;5.73;75.19
50710;BME280;37033;49.994;21.992;2023-03-23T02:05:20;98884.44;;;5.73;75.32
50710;BME280;37033;49.994;21.992;2023-03-23T02:07:55;98880.17;;;5.76;75.63
50710;BME280;37033;49.994;21.992;2023-03-23T02:10:33;98876.04;;;5.74;75.55
50710;BME280;37033;49.994;21.992;2023-03-23T02:13:06;98883.63;;;5.75;75.63
50710;BME280;37033;49.994;21.992;2023-03-23T02:15:45;98877.28;;;5.76;75.64
50710;BME280;37033;49.994;21.992;2023-03-23T02:18:32;98873.91;;;5.77;75.79
50710;BME280;37033;49.994;21.992;2023-03-23T02:24:23;98876.35;;;5.78;75.80
50710;BME280;37033;49.994;21.992;2023-03-23T02:27:02;98876.80;;;5.79;75.75
50710;BME280;37033;49.994;21.992;2023-03-23T02:32:52;98887.46;;;5.77;75.90
50710;BME280;37033;49.994;21.992;2023-03-23T02:35:31;98882.25;;;5.76;75.86
50710;BME280;37033;49.994;21.992;2023-03-23T02:38:08;98886.65;;;5.77;75.99
50710;BME280;37033;49.994;21.992;2023-03-23T02:40:42;98885.77;;;5.77;75.92
50710;BME280;37033;49.994;21.992;2023-03-23T02:43:17;98883.06;;;5.74;75.88
50710;BME280;37033;49.994;21.992;2023-03-23T02:45:51;98882.87;;;5.71;75.94
50710;BME280;37033;49.994;21.992;2023-03-23T02:48:27;98884.84;;;5.69;76.08
50710;BME280;37033;49.994;21.992;2023-03-23T02:51:00;98885.69;;;5.68;76.20
50710;BME280;37033;49.994;21.992;2023-03-23T02:53:36;98884.11;;;5.68;76.13
50710;BME280;37033;49.994;21.992;2023-03-23T02:56:11;98881.62;;;5.68;76.23
50710;BME280;37033;49.994;21.992;2023-03-23T02:58:44;98876.39;;;5.68;76.33
50710;BME280;37033;49.994;21.992;2023-03-23T03:04:18;98867.91;;;5.74;76.79
50710;BME280;37033;49.994;21.992;2023-03-23T03:07:01;98868.96;;;5.81;76.78
50710;BME280;37033;49.994;21.992;2023-03-23T03:09:44;98864.96;;;5.86;76.90
50710;BME280;37033;49.994;21.992;2023-03-23T03:12:23;98870.67;;;5.93;76.98
50710;BME280;37033;49.994;21.992;2023-03-23T03:15:02;98863.08;;;5.99;77.04
50710;BME280;37033;49.994;21.992;2023-03-23T03:17:40;98866.98;;;6.07;77.22
50710;BME280;37033;49.994;21.992;2023-03-23T03:20:15;98870.21;;;6.14;76.95
50710;BME280;37033;49.994;21.992;2023-03-23T03:22:47;98871.02;;;6.20;76.88
50710;BME280;37033;49.994;21.992;2023-03-23T03:25:18;98872.45;;;6.25;76.85
50710;BME280;37033;49.994;21.992;2023-03-23T03:27:51;98868.91;;;6.29;76.75
50710;BME280;37033;49.994;21.992;2023-03-23T03:30:28;98871.27;;;6.33;76.72
50710;BME280;37033;49.994;21.992;2023-03-23T03:33:03;98879.16;;;6.37;76.71
50710;BME280;37033;49.994;21.992;2023-03-23T03:35:37;98882.65;;;6.40;76.60
50710;BME280;37033;49.994;21.992;2023-03-23T03:38:11;98885.37;;;6.45;76.80
50710;BME280;37033;49.994;21.992;2023-03-23T03:40:42;98892.59;;;6.51;76.67
50710;BME280;37033;49.994;21.992;2023-03-23T03:43:14;98897.96;;;6.55;76.74
50710;BME280;37033;49.994;21.992;2023-03-23T03:45:45;98898.75;;;6.58;76.53
50710;BME280;37033;49.994;21.992;2023-03-23T03:48:16;98893.51;;;6.59;76.48
50710;BME280;37033;49.994;21.992;2023-03-23T03:50:47;98885.23;;;6.59;76.48
50710;BME280;37033;49.994;21.992;2023-03-23T03:53:17;98879.56;;;6.59;76.37
50710;BME280;37033;49.994;21.992;2023-03-23T03:55:48;98881.22;;;6.58;76.49
50710;BME280;37033;49.994;21.992;2023-03-23T03:58:19;98875.45;;;6.58;76.42
50710;BME280;37033;49.994;21.992;2023-03-23T04:00:50;98880.73;;;6.58;76.50
50710;BME280;37033;49.994;21.992;2023-03-23T04:03:22;98876.23;;;6.58;76.69
50710;BME280;37033;49.994;21.992;2023-03-23T04:05:55;98873.58;;;6.58;76.65
50710;BME280;37033;49.994;21.992;2023-03-23T04:08:26;98870.63;;;6.58;76.62
50710;BME280;37033;49.994;21.992;2023-03-23T04:10:57;98867.30;;;6.59;76.55
50710;BME280;37033;49.994;21.992;2023-03-23T04:13:28;98874.00;;;6.61;76.72
50710;BME280;37033;49.994;21.992;2023-03-23T04:15:59;98879.59;;;6.64;76.79
50710;BME280;37033;49.994;21.992;2023-03-23T04:18:30;98879.14;;;6.67;77.00
50710;BME280;37033;49.994;21.992;2023-03-23T04:21:02;98877.00;;;6.72;76.82
50710;BME280;37033;49.994;21.992;2023-03-23T04:23:33;98871.54;;;6.76;76.84
50710;BME280;37033;49.994;21.992;2023-03-23T04:26:05;98874.38;;;6.79;76.84
50710;BME280;37033;49.994;21.992;2023-03-23T04:28:37;98869.48;;;6.81;76.74
50710;BME280;37033;49.994;21.992;2023-03-23T04:31:08;98867.77;;;6.83;76.51
50710;BME280;37033;49.994;21.992;2023-03-23T04:33:42;98862.25;;;6.84;76.65
50710;BME280;37033;49.994;21.992;2023-03-23T04:36:12;98867.52;;;6.85;76.63
50710;BME280;37033;49.994;21.992;2023-03-23T04:38:45;98863.67;;;6.83;76.50
50710;BME280;37033;49.994;21.992;2023-03-23T04:41:16;98867.23;;;6.83;76.59
50710;BME280;37033;49.994;21.992;2023-03-23T04:43:47;98867.36;;;6.83;76.61
50710;BME280;37033;49.994;21.992;2023-03-23T04:46:21;98864.28;;;6.86;76.74
50710;BME280;37033;49.994;21.992;2023-03-23T04:48:52;98863.48;;;6.90;76.85
50710;BME280;37033;49.994;21.992;2023-03-23T04:51:24;98862.38;;;6.95;76.83
50710;BME280;37033;49.994;21.992;2023-03-23T04:53:55;98862.64;;;7.02;76.93
50710;BME280;37033;49.994;21.992;2023-03-23T04:56:27;98854.16;;;7.10;77.09
50710;BME280;37033;49.994;21.992;2023-03-23T04:58:57;98852.43;;;7.19;77.19
50710;BME280;37033;49.994;21.992;2023-03-23T05:01:30;98855.69;;;7.30;77.08
50710;BME280;37033;49.994;21.992;2023-03-23T05:04:01;98856.88;;;7.38;76.83
50710;BME280;37033;49.994;21.992;2023-03-23T05:06:31;98858.34;;;7.45;76.73
50710;BME280;37033;49.994;21.992;2023-03-23T05:09:03;98861.03;;;7.53;76.68
50710;BME280;37033;49.994;21.992;2023-03-23T05:11:34;98864.84;;;7.61;76.74
50710;BME280;37033;49.994;21.992;2023-03-23T05:14:05;98865.77;;;7.69;76.48
50710;BME280;37033;49.994;21.992;2023-03-23T05:16:37;98869.08;;;7.81;76.36
50710;BME280;37033;49.994;21.992;2023-03-23T05:19:07;98868.90;;;7.92;76.22
50710;BME280;37033;49.994;21.992;2023-03-23T05:21:38;98869.08;;;8.03;75.93
50710;BME280;37033;49.994;21.992;2023-03-23T05:24:09;98869.30;;;8.13;75.95
50710;BME280;37033;49.994;21.992;2023-03-23T05:26:40;98875.09;;;8.24;76.00
50710;BME280;37033;49.994;21.992;2023-03-23T05:29:11;98872.91;;;8.30;75.59
50710;BME280;37033;49.994;21.992;2023-03-23T05:31:42;98874.36;;;8.35;75.47
50710;BME280;37033;49.994;21.992;2023-03-23T05:34:13;98883.44;;;8.41;75.44
50710;BME280;37033;49.994;21.992;2023-03-23T05:36:46;98879.14;;;8.45;75.36
50710;BME280;37033;49.994;21.992;2023-03-23T05:39:17;98882.27;;;8.49;75.24
50710;BME280;37033;49.994;21.992;2023-03-23T05:41:47;98880.30;;;8.54;75.07
50710;BME280;37033;49.994;21.992;2023-03-23T05:44:18;98882.16;;;8.61;74.88
50710;BME280;37033;49.994;21.992;2023-03-23T05:46:49;98882.86;;;8.66;75.01
50710;BME280;37033;49.994;21.992;2023-03-23T05:49:20;98881.92;;;8.71;74.89
50710;BME280;37033;49.994;21.992;2023-03-23T05:51:51;98885.88;;;8.77;74.78
50710;BME280;37033;49.994;21.992;2023-03-23T05:54:22;98885.72;;;8.83;74.56
50710;BME280;37033;49.994;21.992;2023-03-23T05:56:53;98881.73;;;8.90;74.42
50710;BME280;37033;49.994;21.992;2023-03-23T05:59:24;98887.08;;;8.97;74.29
50710;BME280;37033;49.994;21.992;2023-03-23T06:01:55;98884.42;;;9.04;74.10
50710;BME280;37033;49.994;21.992;2023-03-23T06:04:27;98884.46;;;9.09;73.95
50710;BME280;37033;49.994;21.992;2023-03-23T06:06:58;98883.59;;;9.15;73.88
50710;BME280;37033;49.994;21.992;2023-03-23T06:09:29;98882.16;;;9.20;73.71
50710;BME280;37033;49.994;21.992;2023-03-23T06:12:00;98882.83;;;9.25;73.70
50710;BME280;37033;49.994;21.992;2023-03-23T06:14:31;98880.25;;;9.28;73.52
50710;BME280;37033;49.994;21.992;2023-03-23T06:17:02;98878.11;;;9.34;73.31
50710;BME280;37033;49.994;21.992;2023-03-23T06:19:33;98877.53;;;9.39;73.26
50710;BME280;37033;49.994;21.992;2023-03-23T06:22:04;98876.93;;;9.45;73.05
50710;BME280;37033;49.994;21.992;2023-03-23T06:24:35;98875.89;;;9.52;72.89
50710;BME280;37033;49.994;21.992;2023-03-23T06:27:07;98873.02;;;9.58;72.95
50710;BME280;37033;49.994;21.992;2023-03-23T06:29:38;98877.64;;;9.65;73.02
50710;BME280;37033;49.994;21.992;2023-03-23T06:32:11;98878.50;;;9.73;73.04
50710;BME280;37033;49.994;21.992;2023-03-23T06:34:43;98878.71;;;9.80;73.09
50710;BME280;37033;49.994;21.992;2023-03-23T06:37:15;98873.73;;;9.87;73.05
50710;BME280;37033;49.994;21.992;2023-03-23T06:39:47;98874.92;;;9.96;72.69
50710;BME280;37033;49.994;21.992;2023-03-23T06:42:18;98877.08;;;10.02;72.45
50710;BME280;37033;49.994;21.992;2023-03-23T06:44:49;98877.58;;;10.11;72.17
50710;BME280;37033;49.994;21.992;2023-03-23T06:47:20;98877.77;;;10.17;71.84
50710;BME280;37033;49.994;21.992;2023-03-23T06:49:50;98876.48;;;10.23;71.88
50710;BME280;37033;49.994;21.992;2023-03-23T06:52:21;98880.39;;;10.26;71.59
50710;BME280;37033;49.994;21.992;2023-03-23T06:54:53;98878.98;;;10.30;71.43
50710;BME280;37033;49.994;21.992;2023-03-23T06:57:24;98879.09;;;10.32;71.35
50710;BME280;37033;49.994;21.992;2023-03-23T06:59:55;98884.06;;;10.35;71.60
50710;BME280;37033;49.994;21.992;2023-03-23T07:02:26;98887.52;;;10.41;71.11
50710;BME280;37033;49.994;21.992;2023-03-23T07:04:58;98883.91;;;10.49;70.88
50710;BME280;37033;49.994;21.992;2023-03-23T07:07:29;98884.39;;;10.61;70.85
50710;BME280;37033;49.994;21.992;2023-03-23T07:10:00;98883.83;;;10.74;70.61
50710;BME280;37033;49.994;21.992;2023-03-23T07:12:31;98878.70;;;10.89;70.19
50710;BME280;37033;49.994;21.992;2023-03-23T07:15:02;98880.37;;;11.03;69.78
50710;BME280;37033;49.994;21.992;2023-03-23T07:17:34;98881.02;;;11.15;68.75
50710;BME280;37033;49.994;21.992;2023-03-23T07:20:07;98877.31;;;11.25;68.67
50710;BME280;37033;49.994;21.992;2023-03-23T07:22:38;98878.83;;;11.36;68.30
50710;BME280;37033;49.994;21.992;2023-03-23T07:25:09;98877.21;;;11.45;68.13
50710;BME280;37033;49.994;21.992;2023-03-23T07:27:40;98874.14;;;11.56;67.37
50710;BME280;37033;49.994;21.992;2023-03-23T07:30:13;98875.27;;;11.69;67.04
50710;BME280;37033;49.994;21.992;2023-03-23T07:32:44;98870.13;;;11.80;66.86
50710;BME280;37033;49.994;21.992;2023-03-23T07:35:16;98873.87;;;11.92;66.45
50710;BME280;37033;49.994;21.992;2023-03-23T07:37:47;98871.71;;;12.04;66.37
50710;BME280;37033;49.994;21.992;2023-03-23T07:40:19;98873.26;;;12.18;66.20
50710;BME280;37033;49.994;21.992;2023-03-23T07:42:55;98867.59;;;12.29;65.92
50710;BME280;37033;49.994;21.992;2023-03-23T07:45:26;98865.41;;;12.40;65.67
50710;BME280;37033;49.994;21.992;2023-03-23T07:47:57;98867.17;;;12.49;65.03
50710;BME280;37033;49.994;21.992;2023-03-23T07:50:28;98862.58;;;12.55;63.89
50710;BME280;37033;49.994;21.992;2023-03-23T07:53:00;98866.63;;;12.60;63.84
50710;BME280;37033;49.994;21.992;2023-03-23T07:55:31;98862.94;;;12.66;64.20
50710;BME280;37033;49.994;21.992;2023-03-23T07:58:01;98865.95;;;12.71;64.49
50710;BME280;37033;49.994;21.992;2023-03-23T08:00:32;98868.27;;;12.80;64.19
50710;BME280;37033;49.994;21.992;2023-03-23T08:03:06;98865.23;;;12.89;63.71
50710;BME280;37033;49.994;21.992;2023-03-23T08:05:37;98862.30;;;12.97;62.46
50710;BME280;37033;49.994;21.992;2023-03-23T08:08:09;98859.14;;;13.06;62.32
50710;BME280;37033;49.994;21.992;2023-03-23T08:10:40;98858.89;;;13.17;62.10
50710;BME280;37033;49.994;21.992;2023-03-23T08:13:10;98853.99;;;13.27;61.07
50710;BME280;37033;49.994;21.992;2023-03-23T08:15:41;98856.00;;;13.35;61.21
50710;BME280;37033;49.994;21.992;2023-03-23T08:18:12;98852.44;;;13.42;60.94
50710;BME280;37033;49.994;21.992;2023-03-23T08:20:44;98846.31;;;13.53;60.81
50710;BME280;37033;49.994;21.992;2023-03-23T08:23:15;98841.11;;;13.66;60.97
50710;BME280;37033;49.994;21.992;2023-03-23T08:25:46;98838.91;;;13.82;60.56
50710;BME280;37033;49.994;21.992;2023-03-23T08:28:17;98837.07;;;13.99;59.35
50710;BME280;37033;49.994;21.992;2023-03-23T08:30:49;98835.21;;;14.16;59.34
50710;BME280;37033;49.994;21.992;2023-03-23T08:33:19;98830.89;;;14.33;58.29
50710;BME280;37033;49.994;21.992;2023-03-23T08:35:57;98827.54;;;14.47;58.25
50710;BME280;37033;49.994;21.992;2023-03-23T08:38:28;98826.73;;;14.60;57.85
50710;BME280;37033;49.994;21.992;2023-03-23T08:41:01;98828.31;;;14.72;58.13
50710;BME280;37033;49.994;21.992;2023-03-23T08:43:33;98828.41;;;14.85;57.75
50710;BME280;37033;49.994;21.992;2023-03-23T08:46:06;98825.38;;;14.95;56.69
50710;BME280;37033;49.994;21.992;2023-03-23T08:48:38;98830.27;;;15.01;55.98
50710;BME280;37033;49.994;21.992;2023-03-23T08:51:10;98832.76;;;15.05;55.50
50710;BME280;37033;49.994;21.992;2023-03-23T08:53:41;98831.58;;;15.08;54.57
50710;BME280;37033;49.994;21.992;2023-03-23T08:56:12;98838.67;;;15.11;54.33
50710;BME280;37033;49.994;21.992;2023-03-23T08:58:43;98841.77;;;15.16;54.48
50710;BME280;37033;49.994;21.992;2023-03-23T09:01:14;98842.60;;;15.22;54.52
50710;BME280;37033;49.994;21.992;2023-03-23T09:03:45;98847.42;;;15.28;53.39
50710;BME280;37033;49.994;21.992;2023-03-23T09:06:16;98848.02;;;15.28;53.09
50710;BME280;37033;49.994;21.992;2023-03-23T09:08:47;98852.13;;;15.29;52.97
50710;BME280;37033;49.994;21.992;2023-03-23T09:11:19;98848.67;;;15.30;53.15
50710;BME280;37033;49.994;21.992;2023-03-23T09:13:50;98853.70;;;15.31;53.08
50710;BME280;37033;49.994;21.992;2023-03-23T09:16:21;98847.41;;;15.36;52.74
50710;BME280;37033;49.994;21.992;2023-03-23T09:18:52;98851.78;;;15.44;52.35
50710;BME280;37033;49.994;21.992;2023-03-23T09:21:22;98848.68;;;15.56;52.63
50710;BME280;37033;49.994;21.992;2023-03-23T09:23:55;98853.23;;;15.68;51.73
50710;BME280;37033;49.994;21.992;2023-03-23T09:26:27;98852.77;;;15.73;51.29
50710;BME280;37033;49.994;21.992;2023-03-23T09:28:58;98850.94;;;15.77;51.29
50710;BME280;37033;49.994;21.992;2023-03-23T09:31:29;98847.08;;;15.82;51.61
50710;BME280;37033;49.994;21.992;2023-03-23T09:34:00;98843.58;;;15.88;51.49
50710;BME280;37033;49.994;21.992;2023-03-23T09:36:33;98841.90;;;15.97;51.68
50710;BME280;37033;49.994;21.992;2023-03-23T09:39:05;98836.17;;;16.04;51.93
50710;BME280;37033;49.994;21.992;2023-03-23T09:42:01;98840.24;;;16.13;51.31
50710;BME280;37033;49.994;21.992;2023-03-23T09:44:45;98839.39;;;16.20;51.15
50710;BME280;37033;49.994;21.992;2023-03-23T09:47:25;98841.62;;;16.27;51.46
50710;BME280;37033;49.994;21.992;2023-03-23T09:50:04;98840.02;;;16.32;51.04
50710;BME280;37033;49.994;21.992;2023-03-23T09:52:42;98841.52;;;16.35;50.71
50710;BME280;37033;49.994;21.992;2023-03-23T09:55:15;98839.80;;;16.36;50.73
50710;BME280;37033;49.994;21.992;2023-03-23T09:57:52;98839.13;;;16.33;49.76
50710;BME280;37033;49.994;21.992;2023-03-23T10:00:31;98838.94;;;16.26;50.20
50710;BME280;37033;49.994;21.992;2023-03-23T10:03:10;98837.89;;;16.22;50.12
50710;BME280;37033;49.994;21.992;2023-03-23T10:05:48;98836.17;;;16.20;50.34
50710;BME280;37033;49.994;21.992;2023-03-23T10:08:21;98843.73;;;16.15;50.08
50710;BME280;37033;49.994;21.992;2023-03-23T10:11:00;98841.98;;;16.08;49.83
50710;BME280;37033;49.994;21.992;2023-03-23T10:13:49;98840.95;;;16.05;50.47
50710;BME280;37033;49.994;21.992;2023-03-23T10:16:24;98837.18;;;16.02;50.34
50710;BME280;37033;49.994;21.992;2023-03-23T10:19:01;98834.14;;;16.01;50.21
50710;BME280;37033;49.994;21.992;2023-03-23T10:21:44;98833.90;;;16.01;50.36
50710;BME280;37033;49.994;21.992;2023-03-23T10:24:19;98832.17;;;15.99;50.19
50710;BME280;37033;49.994;21.992;2023-03-23T10:26:57;98829.95;;;15.97;50.49
50710;BME280;37033;49.994;21.992;2023-03-23T10:29:33;98825.20;;;15.96;50.34
50710;BME280;37033;49.994;21.992;2023-03-23T10:32:11;98819.98;;;15.95;50.55
50710;BME280;37033;49.994;21.992;2023-03-23T10:34:47;98821.38;;;15.97;50.96
50710;BME280;37033;49.994;21.992;2023-03-23T10:37:22;98823.30;;;16.02;50.85
50710;BME280;37033;49.994;21.992;2023-03-23T10:39:58;98822.17;;;16.06;51.01
50710;BME280;37033;49.994;21.992;2023-03-23T10:42:30;98820.43;;;16.14;51.09
50710;BME280;37033;49.994;21.992;2023-03-23T10:45:13;98816.14;;;16.20;50.70
50710;BME280;37033;49.994;21.992;2023-03-23T10:47:46;98820.45;;;16.26;50.49
50710;BME280;37033;49.994;21.992;2023-03-23T10:50:24;98821.31;;;16.28;50.45
50710;BME280;37033;49.994;21.992;2023-03-23T10:52:58;98817.37;;;16.32;50.35
50710;BME280;37033;49.994;21.992;2023-03-23T10:55:38;98811.13;;;16.40;49.86
50710;BME280;37033;49.994;21.992;2023-03-23T10:58:13;98812.22;;;16.52;50.39
50710;BME280;37033;49.994;21.992;2023-03-23T11:00:52;98814.54;;;16.68;50.63
50710;BME280;37033;49.994;21.992;2023-03-23T11:03:27;98812.46;;;16.80;50.21
50710;BME280;37033;49.994;21.992;2023-03-23T11:06:01;98808.60;;;16.89;50.35
50710;BME280;37033;49.994;21.992;2023-03-23T11:08:35;98806.26;;;17.03;50.43
50710;BME280;37033;49.994;21.992;2023-03-23T11:11:17;98802.45;;;17.22;50.28
50710;BME280;37033;49.994;21.992;2023-03-23T11:13:49;98800.34;;;17.36;48.99
50710;BME280;37033;49.994;21.992;2023-03-23T11:16:29;98800.44;;;17.40;48.09
50710;BME280;37033;49.994;21.992;2023-03-23T11:19:11;98796.86;;;17.38;47.81
50710;BME280;37033;49.994;21.992;2023-03-23T11:21:47;98794.31;;;17.32;47.50
50710;BME280;37033;49.994;21.992;2023-03-23T11:24:20;98794.31;;;17.25;47.04
50710;BME280;37033;49.994;21.992;2023-03-23T11:26:52;98797.07;;;17.18;47.03
50710;BME280;37033;49.994;21.992;2023-03-23T11:29:26;98791.55;;;17.13;47.14
50710;BME280;37033;49.994;21.992;2023-03-23T11:32:06;98789.16;;;17.11;47.31
50710;BME280;37033;49.994;21.992;2023-03-23T11:34:45;98786.50;;;17.13;47.34
50710;BME280;37033;49.994;21.992;2023-03-23T11:37:22;98788.71;;;17.12;47.21
50710;BME280;37033;49.994;21.992;2023-03-23T11:39:58;98783.17;;;17.11;47.27
50710;BME280;37033;49.994;21.992;2023-03-23T11:42:42;98786.12;;;17.13;47.51
50710;BME280;37033;49.994;21.992;2023-03-23T11:45:19;98785.55;;;17.20;48.27
50710;BME280;37033;49.994;21.992;2023-03-23T11:47:58;98782.31;;;17.33;47.57
50710;BME280;37033;49.994;21.992;2023-03-23T11:50:34;98777.86;;;17.40;46.91
50710;BME280;37033;49.994;21.992;2023-03-23T11:53:13;98772.89;;;17.44;46.58
50710;BME280;37033;49.994;21.992;2023-03-23T11:55:57;98765.69;;;17.48;47.08
50710;BME280;37033;49.994;21.992;2023-03-23T11:58:32;98765.09;;;17.53;45.89
50710;BME280;37033;49.994;21.992;2023-03-23T12:01:09;98765.06;;;17.57;46.09
50710;BME280;37033;49.994;21.992;2023-03-23T12:03:53;98759.64;;;17.69;46.09
50710;BME280;37033;49.994;21.992;2023-03-23T12:06:35;98756.74;;;17.83;46.48
50710;BME280;37033;49.994;21.992;2023-03-23T12:09:17;98753.37;;;18.07;46.30
50710;BME280;37033;49.994;21.992;2023-03-23T12:11:57;98752.81;;;18.31;46.06
50710;BME280;37033;49.994;21.992;2023-03-23T12:14:36;98746.92;;;18.51;45.74
50710;BME280;37033;49.994;21.992;2023-03-23T12:17:26;98743.25;;;18.72;45.13
50710;BME280;37033;49.994;21.992;2023-03-23T12:20:10;98740.90;;;18.82;44.59
50710;BME280;37033;49.994;21.992;2023-03-23T12:22:58;98735.48;;;18.75;43.57
50710;BME280;37033;49.994;21.992;2023-03-23T12:31:36;98741.27;;;18.45;43.96
50710;BME280;37033;49.994;21.992;2023-03-23T12:34:17;98739.70;;;18.42;44.19
50710;BME280;37033;49.994;21.992;2023-03-23T12:36:58;98733.07;;;18.43;43.64
50710;BME280;37033;49.994;21.992;2023-03-23T12:39:53;98736.52;;;18.43;43.42
50710;BME280;37033;49.994;21.992;2023-03-23T12:42:33;98732.84;;;18.48;43.68
50710;BME280;37033;49.994;21.992;2023-03-23T12:45:17;98727.85;;;18.54;43.25
50710;BME280;37033;49.994;21.992;2023-03-23T12:47:57;98730.35;;;18.63;44.35
50710;BME280;37033;49.994;21.992;2023-03-23T12:50:32;98724.50;;;18.73;44.27
50710;BME280;37033;49.994;21.992;2023-03-23T12:53:09;98719.00;;;18.78;43.81
50710;BME280;37033;49.994;21.992;2023-03-23T12:55:46;98716.39;;;18.76;43.24
50710;BME280;37033;49.994;21.992;2023-03-23T12:58:21;98705.77;;;18.74;42.97
50710;BME280;37033;49.994;21.992;2023-03-23T13:00:58;98703.63;;;18.78;42.83
50710;BME280;37033;49.994;21.992;2023-03-23T13:03:37;98707.98;;;18.86;43.08
50710;BME280;37033;49.994;21.992;2023-03-23T13:06:15;98700.22;;;18.92;43.40
50710;BME280;37033;49.994;21.992;2023-03-23T13:08:53;98696.20;;;19.01;43.31
50710;BME280;37033;49.994;21.992;2023-03-23T13:11:28;98692.77;;;19.06;41.45
50710;BME280;37033;49.994;21.992;2023-03-23T13:14:09;98689.20;;;19.07;41.37
50710;BME280;37033;49.994;21.992;2023-03-23T13:16:46;98689.31;;;19.14;42.40
50710;BME280;37033;49.994;21.992;2023-03-23T13:19:26;98681.32;;;19.23;41.98
50710;BME280;37033;49.994;21.992;2023-03-23T13:22:04;98676.20;;;19.23;41.76
50710;BME280;37033;49.994;21.992;2023-03-23T13:24:46;98673.41;;;19.16;41.88
50710;BME280;37033;49.994;21.992;2023-03-23T13:27:24;98667.52;;;19.07;41.99
50710;BME280;37033;49.994;21.992;2023-03-23T13:29:57;98670.27;;;18.92;42.03
50710;BME280;37033;49.994;21.992;2023-03-23T13:32:35;98665.11;;;18.85;42.61
50710;BME280;37033;49.994;21.992;2023-03-23T13:35:13;98657.77;;;18.87;42.73
50710;BME280;37033;49.994;21.992;2023-03-23T13:37:48;98654.60;;;18.95;42.51
50710;BME280;37033;49.994;21.992;2023-03-23T13:40:26;98649.91;;;18.99;41.78
50710;BME280;37033;49.994;21.992;2023-03-23T13:42:59;98646.08;;;19.03;41.92
50710;BME280;37033;49.994;21.992;2023-03-23T13:45:44;98644.45;;;19.08;41.96
50710;BME280;37033;49.994;21.992;2023-03-23T13:48:23;98641.30;;;19.14;42.33